EGNV/MME METAR and TAF weather

Enter ICAO airport designator
Station Type Date Time Source
EGNV METAR 2018/10/16 20:20 UTC NOAA

EGNV 162020Z 21005KT 9999 SCT033 13/11 Q1012


Station Type Date Time Source
EGNV Decoded METAR 2018/10/16 20:20 UTC NOAA

Tees-Side, United Kingdom (EGNV) 54-31N 001-25W
Oct 16, 2018 - 04:20 PM EDT / 2018.10.16 2020 UTC
Wind: from the SSW (210 degrees) at 6 MPH (5 KT):0
Visibility: greater than 7 mile(s):0
Sky conditions: partly cloudy
Temperature: 55 F (13 C)
Dew Point: 51 F (11 C)
Relative Humidity: 87%
Pressure (altimeter): 29.88 in. Hg (1012 hPa)
ob: EGNV 162020Z 21005KT 9999 SCT033 13/11 Q1012
cycle: 20

Station Type Date Time Source
EGNV TAF 2016/01/23 12:00 UTC NOAA

TAF EGNV 231059Z 2312/2321 18008KT 9999 FEW030 PROB40 2319/2321 6000 RADZ BKN014


Example: see airport list